sensor_id;sensor_type;location;lat;lon;timestamp;temperature;humidity
75099;DHT22;63685;47.374;8.498;2022-11-15T00:02:07;20.40;69.00
75099;DHT22;63685;47.374;8.498;2022-11-15T00:04:32;20.40;69.10
75099;DHT22;63685;47.374;8.498;2022-11-15T00:06:58;20.40;69.10
75099;DHT22;63685;47.374;8.498;2022-11-15T00:09:23;20.40;69.10
75099;DHT22;63685;47.374;8.498;2022-11-15T00:11:51;20.40;69.10
75099;DHT22;63685;47.374;8.498;2022-11-15T00:14:16;20.40;69.10
75099;DHT22;63685;47.374;8.498;2022-11-15T00:16:42;20.40;69.20
75099;DHT22;63685;47.374;8.498;2022-11-15T00:19:07;20.40;69.20
75099;DHT22;63685;47.374;8.498;2022-11-15T00:21:33;20.40;69.30
75099;DHT22;63685;47.374;8.498;2022-11-15T00:23:59;20.40;69.40
75099;DHT22;63685;47.374;8.498;2022-11-15T00:26:24;20.40;69.60
75099;DHT22;63685;47.374;8.498;2022-11-15T00:28:52;20.40;69.60
75099;DHT22;63685;47.374;8.498;2022-11-15T00:31:18;20.50;69.70
75099;DHT22;63685;47.374;8.498;2022-11-15T00:33:44;20.40;69.60
75099;DHT22;63685;47.374;8.498;2022-11-15T00:36:09;20.40;69.60
75099;DHT22;63685;47.374;8.498;2022-11-15T00:38:38;20.50;69.80
75099;DHT22;63685;47.374;8.498;2022-11-15T00:41:05;20.40;69.70
75099;DHT22;63685;47.374;8.498;2022-11-15T00:43:31;20.40;69.70
75099;DHT22;63685;47.374;8.498;2022-11-15T00:45:57;20.40;69.70
75099;DHT22;63685;47.374;8.498;2022-11-15T00:48:23;20.40;69.70
75099;DHT22;63685;47.374;8.498;2022-11-15T00:50:49;20.50;70.00
75099;DHT22;63685;47.374;8.498;2022-11-15T00:53:15;20.40;69.90
75099;DHT22;63685;47.374;8.498;2022-11-15T00:55:40;20.40;70.10
75099;DHT22;63685;47.374;8.498;2022-11-15T00:58:06;20.40;70.10
75099;DHT22;63685;47.374;8.498;2022-11-15T01:00:32;20.50;70.30
75099;DHT22;63685;47.374;8.498;2022-11-15T01:02:57;20.40;70.20
75099;DHT22;63685;47.374;8.498;2022-11-15T01:05:23;20.50;71.40
75099;DHT22;63685;47.374;8.498;2022-11-15T01:07:53;20.50;70.60
75099;DHT22;63685;47.374;8.498;2022-11-15T01:10:19;20.50;70.50
75099;DHT22;63685;47.374;8.498;2022-11-15T01:12:45;20.50;70.40
75099;DHT22;63685;47.374;8.498;2022-11-15T01:15:10;20.50;70.40
75099;DHT22;63685;47.374;8.498;2022-11-15T01:17:36;20.40;70.40
75099;DHT22;63685;47.374;8.498;2022-11-15T01:20:02;20.40;70.30
75099;DHT22;63685;47.374;8.498;2022-11-15T01:22:28;20.40;70.40
75099;DHT22;63685;47.374;8.498;2022-11-15T01:24:53;20.40;70.30
75099;DHT22;63685;47.374;8.498;2022-11-15T01:27:19;20.40;70.40
75099;DHT22;63685;47.374;8.498;2022-11-15T01:29:44;20.40;70.50
75099;DHT22;63685;47.374;8.498;2022-11-15T01:32:10;20.50;70.50
75099;DHT22;63685;47.374;8.498;2022-11-15T01:34:35;20.40;70.50
75099;DHT22;63685;47.374;8.498;2022-11-15T01:37:01;20.40;70.60
75099;DHT22;63685;47.374;8.498;2022-11-15T01:39:27;20.40;70.60
75099;DHT22;63685;47.374;8.498;2022-11-15T01:41:53;20.50;70.70
75099;DHT22;63685;47.374;8.498;2022-11-15T01:47:04;20.50;70.90
75099;DHT22;63685;47.374;8.498;2022-11-15T01:49:33;20.40;70.80
75099;DHT22;63685;47.374;8.498;2022-11-15T01:52:02;20.40;71.00
75099;DHT22;63685;47.374;8.498;2022-11-15T01:54:28;20.40;71.00
75099;DHT22;63685;47.374;8.498;2022-11-15T01:57:04;20.40;71.10
75099;DHT22;63685;47.374;8.498;2022-11-15T01:59:31;20.40;71.10
75099;DHT22;63685;47.374;8.498;2022-11-15T02:01:56;20.40;71.20
75099;DHT22;63685;47.374;8.498;2022-11-15T02:04:31;20.40;71.20
75099;DHT22;63685;47.374;8.498;2022-11-15T02:06:58;20.50;71.60
75099;DHT22;63685;47.374;8.498;2022-11-15T02:09:25;20.50;72.30
75099;DHT22;63685;47.374;8.498;2022-11-15T02:11:51;20.50;71.80
75099;DHT22;63685;47.374;8.498;2022-11-15T02:14:19;20.50;72.00
75099;DHT22;63685;47.374;8.498;2022-11-15T02:17:09;20.50;71.90
75099;DHT22;63685;47.374;8.498;2022-11-15T02:22:48;20.50;71.70
75099;DHT22;63685;47.374;8.498;2022-11-15T02:34:00;20.50;72.30
75099;DHT22;63685;47.374;8.498;2022-11-15T02:39:08;20.50;72.10
75099;DHT22;63685;47.374;8.498;2022-11-15T02:41:39;20.50;72.10
75099;DHT22;63685;47.374;8.498;2022-11-15T02:44:40;20.50;72.70
75099;DHT22;63685;47.374;8.498;2022-11-15T02:47:10;20.50;72.80
75099;DHT22;63685;47.374;8.498;2022-11-15T02:49:58;20.50;72.30
75099;DHT22;63685;47.374;8.498;2022-11-15T02:52:24;20.50;72.20
75099;DHT22;63685;47.374;8.498;2022-11-15T03:00:18;20.50;72.30
75099;DHT22;63685;47.374;8.498;2022-11-15T03:05:30;20.60;72.50
75099;DHT22;63685;47.374;8.498;2022-11-15T03:16:18;20.50;72.60
75099;DHT22;63685;47.374;8.498;2022-11-15T03:18:49;20.60;72.50
75099;DHT22;63685;47.374;8.498;2022-11-15T03:21:19;20.60;72.50
75099;DHT22;63685;47.374;8.498;2022-11-15T03:23:47;20.60;72.40
75099;DHT22;63685;47.374;8.498;2022-11-15T03:26:14;20.60;72.40
75099;DHT22;63685;47.374;8.498;2022-11-15T03:28:55;20.60;72.30
75099;DHT22;63685;47.374;8.498;2022-11-15T03:31:23;20.50;72.30
75099;DHT22;63685;47.374;8.498;2022-11-15T03:34:25;20.60;72.50
75099;DHT22;63685;47.374;8.498;2022-11-15T03:36:52;20.60;72.50
75099;DHT22;63685;47.374;8.498;2022-11-15T03:39:19;20.60;72.70
75099;DHT22;63685;47.374;8.498;2022-11-15T03:47:16;20.50;72.70
75099;DHT22;63685;47.374;8.498;2022-11-15T03:49:46;20.50;72.70
75099;DHT22;63685;47.374;8.498;2022-11-15T03:52:17;20.50;72.90
75099;DHT22;63685;47.374;8.498;2022-11-15T03:54:55;20.60;72.80
75099;DHT22;63685;47.374;8.498;2022-11-15T03:57:21;20.50;72.80
75099;DHT22;63685;47.374;8.498;2022-11-15T03:59:47;20.50;72.80
75099;DHT22;63685;47.374;8.498;2022-11-15T04:02:13;20.50;72.80
75099;DHT22;63685;47.374;8.498;2022-11-15T04:04:39;20.50;72.80
75099;DHT22;63685;47.374;8.498;2022-11-15T04:07:04;20.50;72.80
75099;DHT22;63685;47.374;8.498;2022-11-15T04:09:30;20.50;72.80
75099;DHT22;63685;47.374;8.498;2022-11-15T04:11:56;20.50;73.50
75099;DHT22;63685;47.374;8.498;2022-11-15T04:14:21;20.50;73.00
75099;DHT22;63685;47.374;8.498;2022-11-15T04:16:47;20.50;73.00
75099;DHT22;63685;47.374;8.498;2022-11-15T04:19:12;20.50;73.00
75099;DHT22;63685;47.374;8.498;2022-11-15T04:21:57;20.50;73.10
75099;DHT22;63685;47.374;8.498;2022-11-15T04:24:41;20.50;73.10
75099;DHT22;63685;47.374;8.498;2022-11-15T04:27:06;20.50;73.20
75099;DHT22;63685;47.374;8.498;2022-11-15T04:29:32;20.50;73.20
75099;DHT22;63685;47.374;8.498;2022-11-15T04:32:04;20.50;73.30
75099;DHT22;63685;47.374;8.498;2022-11-15T04:34:30;20.50;74.00
75099;DHT22;63685;47.374;8.498;2022-11-15T04:36:56;20.50;74.20
75099;DHT22;63685;47.374;8.498;2022-11-15T04:39:42;20.50;73.60
75099;DHT22;63685;47.374;8.498;2022-11-15T04:42:08;20.50;73.50
75099;DHT22;63685;47.374;8.498;2022-11-15T04:44:34;20.50;73.50
75099;DHT22;63685;47.374;8.498;2022-11-15T04:46:59;20.60;73.40
75099;DHT22;63685;47.374;8.498;2022-11-15T04:49:25;20.50;74.20
75099;DHT22;63685;47.374;8.498;2022-11-15T04:51:50;20.60;74.40
75099;DHT22;63685;47.374;8.498;2022-11-15T04:54:16;20.60;74.00
75099;DHT22;63685;47.374;8.498;2022-11-15T04:56:42;20.50;73.70
75099;DHT22;63685;47.374;8.498;2022-11-15T04:59:08;20.60;74.40
75099;DHT22;63685;47.374;8.498;2022-11-15T05:01:33;20.50;74.40
75099;DHT22;63685;47.374;8.498;2022-11-15T05:03:59;20.50;74.80
75099;DHT22;63685;47.374;8.498;2022-11-15T05:06:43;20.50;74.90
75099;DHT22;63685;47.374;8.498;2022-11-15T05:09:09;20.50;74.90
75099;DHT22;63685;47.374;8.498;2022-11-15T05:11:34;20.60;74.80
75099;DHT22;63685;47.374;8.498;2022-11-15T05:14:00;20.50;74.40
75099;DHT22;63685;47.374;8.498;2022-11-15T05:16:25;20.50;74.60
75099;DHT22;63685;47.374;8.498;2022-11-15T05:18:52;20.50;74.60
75099;DHT22;63685;47.374;8.498;2022-11-15T05:21:18;20.50;74.40
75099;DHT22;63685;47.374;8.498;2022-11-15T05:23:43;20.50;74.40
75099;DHT22;63685;47.374;8.498;2022-11-15T05:26:09;20.50;74.60
75099;DHT22;63685;47.374;8.498;2022-11-15T05:28:35;20.50;74.60
75099;DHT22;63685;47.374;8.498;2022-11-15T05:33:27;20.50;74.70
75099;DHT22;63685;47.374;8.498;2022-11-15T05:36:04;20.50;74.40
75099;DHT22;63685;47.374;8.498;2022-11-15T05:38:30;20.50;74.30
75099;DHT22;63685;47.374;8.498;2022-11-15T05:40:57;20.50;74.00
75099;DHT22;63685;47.374;8.498;2022-11-15T05:43:23;20.50;74.30
75099;DHT22;63685;47.374;8.498;2022-11-15T05:45:49;20.50;74.70
75099;DHT22;63685;47.374;8.498;2022-11-15T05:48:15;20.50;74.10
75099;DHT22;63685;47.374;8.498;2022-11-15T05:50:43;20.50;74.40
75099;DHT22;63685;47.374;8.498;2022-11-15T05:53:12;20.40;74.50
75099;DHT22;63685;47.374;8.498;2022-11-15T05:55:39;20.50;74.40
75099;DHT22;63685;47.374;8.498;2022-11-15T05:58:06;20.50;74.30
75099;DHT22;63685;47.374;8.498;2022-11-15T06:00:31;20.40;74.50
75099;DHT22;63685;47.374;8.498;2022-11-15T06:02:57;20.50;74.80
75099;DHT22;63685;47.374;8.498;2022-11-15T06:05:22;20.50;74.70
75099;DHT22;63685;47.374;8.498;2022-11-15T06:07:48;20.50;74.60
75099;DHT22;63685;47.374;8.498;2022-11-15T06:10:13;20.50;74.10
75099;DHT22;63685;47.374;8.498;2022-11-15T06:12:39;20.40;74.00
75099;DHT22;63685;47.374;8.498;2022-11-15T06:15:05;20.50;74.40
75099;DHT22;63685;47.374;8.498;2022-11-15T06:17:31;20.50;74.00
75099;DHT22;63685;47.374;8.498;2022-11-15T06:19:56;20.40;73.40
75099;DHT22;63685;47.374;8.498;2022-11-15T06:22:22;20.50;71.90
75099;DHT22;63685;47.374;8.498;2022-11-15T06:24:47;20.40;72.00
75099;DHT22;63685;47.374;8.498;2022-11-15T06:27:13;20.40;72.30
75099;DHT22;63685;47.374;8.498;2022-11-15T06:29:38;20.40;72.20
75099;DHT22;63685;47.374;8.498;2022-11-15T06:32:04;20.40;71.90
75099;DHT22;63685;47.374;8.498;2022-11-15T06:34:30;20.40;71.10
75099;DHT22;63685;47.374;8.498;2022-11-15T06:36:55;20.40;71.60
75099;DHT22;63685;47.374;8.498;2022-11-15T06:39:21;20.40;71.90
75099;DHT22;63685;47.374;8.498;2022-11-15T06:41:46;20.40;72.30
75099;DHT22;63685;47.374;8.498;2022-11-15T06:44:12;20.40;72.10
75099;DHT22;63685;47.374;8.498;2022-11-15T06:46:37;20.40;71.80
75099;DHT22;63685;47.374;8.498;2022-11-15T06:49:03;20.40;71.10
75099;DHT22;63685;47.374;8.498;2022-11-15T06:51:28;20.40;70.80
75099;DHT22;63685;47.374;8.498;2022-11-15T06:53:54;20.40;71.00
75099;DHT22;63685;47.374;8.498;2022-11-15T06:56:20;20.40;71.20
75099;DHT22;63685;47.374;8.498;2022-11-15T06:58:45;20.40;71.20
75099;DHT22;63685;47.374;8.498;2022-11-15T07:01:11;20.40;71.90
75099;DHT22;63685;47.374;8.498;2022-11-15T07:03:40;20.40;71.10
75099;DHT22;63685;47.374;8.498;2022-11-15T07:06:06;20.40;70.20
75099;DHT22;63685;47.374;8.498;2022-11-15T07:08:32;20.30;68.80
75099;DHT22;63685;47.374;8.498;2022-11-15T07:10:59;20.30;69.30
75099;DHT22;63685;47.374;8.498;2022-11-15T07:13:26;20.30;69.10
75099;DHT22;63685;47.374;8.498;2022-11-15T07:15:52;20.30;69.70
75099;DHT22;63685;47.374;8.498;2022-11-15T07:18:18;20.30;67.80
75099;DHT22;63685;47.374;8.498;2022-11-15T07:20:43;20.20;67.40
75099;DHT22;63685;47.374;8.498;2022-11-15T07:23:10;20.20;67.30
75099;DHT22;63685;47.374;8.498;2022-11-15T07:25:35;20.20;66.70
75099;DHT22;63685;47.374;8.498;2022-11-15T07:28:01;20.20;67.50
75099;DHT22;63685;47.374;8.498;2022-11-15T07:30:28;20.20;67.10
75099;DHT22;63685;47.374;8.498;2022-11-15T07:33:00;20.20;67.20
75099;DHT22;63685;47.374;8.498;2022-11-15T07:35:27;20.20;67.00
75099;DHT22;63685;47.374;8.498;2022-11-15T07:38:00;20.20;67.10
75099;DHT22;63685;47.374;8.498;2022-11-15T07:40:27;20.20;66.60
75099;DHT22;63685;47.374;8.498;2022-11-15T07:43:03;20.30;67.50
75099;DHT22;63685;47.374;8.498;2022-11-15T07:45:29;20.30;66.80
75099;DHT22;63685;47.374;8.498;2022-11-15T07:47:55;20.30;66.70
75099;DHT22;63685;47.374;8.498;2022-11-15T07:50:22;20.30;66.80
75099;DHT22;63685;47.374;8.498;2022-11-15T07:52:53;20.30;66.90
75099;DHT22;63685;47.374;8.498;2022-11-15T07:55:19;20.30;67.00
75099;DHT22;63685;47.374;8.498;2022-11-15T07:57:45;20.30;67.00
75099;DHT22;63685;47.374;8.498;2022-11-15T08:00:10;20.40;67.10
75099;DHT22;63685;47.374;8.498;2022-11-15T08:02:36;20.30;67.00
75099;DHT22;63685;47.374;8.498;2022-11-15T08:05:02;20.40;67.10
75099;DHT22;63685;47.374;8.498;2022-11-15T08:07:31;20.40;67.10
75099;DHT22;63685;47.374;8.498;2022-11-15T08:09:57;20.40;67.20
75099;DHT22;63685;47.374;8.498;2022-11-15T08:12:23;20.40;67.30
75099;DHT22;63685;47.374;8.498;2022-11-15T08:14:49;20.40;67.30
75099;DHT22;63685;47.374;8.498;2022-11-15T08:17:15;20.40;67.30
75099;DHT22;63685;47.374;8.498;2022-11-15T08:19:40;20.40;67.30
75099;DHT22;63685;47.374;8.498;2022-11-15T08:22:07;20.40;67.20
75099;DHT22;63685;47.374;8.498;2022-11-15T08:24:32;20.40;67.30
75099;DHT22;63685;47.374;8.498;2022-11-15T08:26:59;20.40;67.40
75099;DHT22;63685;47.374;8.498;2022-11-15T08:29:25;20.40;67.40
75099;DHT22;63685;47.374;8.498;2022-11-15T08:31:51;20.40;67.50
75099;DHT22;63685;47.374;8.498;2022-11-15T08:34:19;20.40;67.60
75099;DHT22;63685;47.374;8.498;2022-11-15T08:36:45;20.40;67.60
75099;DHT22;63685;47.374;8.498;2022-11-15T08:39:11;20.40;67.70
75099;DHT22;63685;47.374;8.498;2022-11-15T08:41:38;20.40;67.70
75099;DHT22;63685;47.374;8.498;2022-11-15T08:44:04;20.40;67.70
75099;DHT22;63685;47.374;8.498;2022-11-15T08:46:29;20.40;67.70
75099;DHT22;63685;47.374;8.498;2022-11-15T08:48:55;20.40;67.70
75099;DHT22;63685;47.374;8.498;2022-11-15T08:51:20;20.40;67.80
75099;DHT22;63685;47.374;8.498;2022-11-15T08:53:46;20.40;67.70
75099;DHT22;63685;47.374;8.498;2022-11-15T08:56:13;20.40;67.70
75099;DHT22;63685;47.374;8.498;2022-11-15T08:58:39;20.40;67.70
75099;DHT22;63685;47.374;8.498;2022-11-15T09:01:05;20.40;67.70
75099;DHT22;63685;47.374;8.498;2022-11-15T09:03:31;20.40;67.60
75099;DHT22;63685;47.374;8.498;2022-11-15T09:06:00;20.50;67.60
75099;DHT22;63685;47.374;8.498;2022-11-15T09:08:29;20.40;67.60
75099;DHT22;63685;47.374;8.498;2022-11-15T09:10:55;20.50;67.60
75099;DHT22;63685;47.374;8.498;2022-11-15T09:13:21;20.50;67.80
75099;DHT22;63685;47.374;8.498;2022-11-15T09:15:46;20.40;67.70
75099;DHT22;63685;47.374;8.498;2022-11-15T09:18:12;20.40;67.60
75099;DHT22;63685;47.374;8.498;2022-11-15T09:20:38;20.50;67.80
75099;DHT22;63685;47.374;8.498;2022-11-15T09:23:04;20.40;67.70
75099;DHT22;63685;47.374;8.498;2022-11-15T09:25:30;20.40;67.90
75099;DHT22;63685;47.374;8.498;2022-11-15T09:27:56;20.40;67.90
75099;DHT22;63685;47.374;8.498;2022-11-15T09:30:22;20.40;67.80
75099;DHT22;63685;47.374;8.498;2022-11-15T09:32:48;20.40;67.90
75099;DHT22;63685;47.374;8.498;2022-11-15T09:35:13;20.40;68.00
75099;DHT22;63685;47.374;8.498;2022-11-15T09:37:39;20.40;68.00
75099;DHT22;63685;47.374;8.498;2022-11-15T09:40:05;20.40;68.00
75099;DHT22;63685;47.374;8.498;2022-11-15T09:42:44;20.40;68.00
75099;DHT22;63685;47.374;8.498;2022-11-15T09:45:37;20.40;68.10
75099;DHT22;63685;47.374;8.498;2022-11-15T09:48:42;20.40;68.10
75099;DHT22;63685;47.374;8.498;2022-11-15T09:51:34;20.40;68.10
75099;DHT22;63685;47.374;8.498;2022-11-15T09:54:03;20.40;68.10
75099;DHT22;63685;47.374;8.498;2022-11-15T09:56:31;20.40;68.10
75099;DHT22;63685;47.374;8.498;2022-11-15T10:02:13;20.40;68.10
75099;DHT22;63685;47.374;8.498;2022-11-15T10:04:43;20.40;68.10
75099;DHT22;63685;47.374;8.498;2022-11-15T10:07:23;20.40;68.20
75099;DHT22;63685;47.374;8.498;2022-11-15T10:12:25;20.40;68.10
75099;DHT22;63685;47.374;8.498;2022-11-15T10:15:03;20.40;68.20
75099;DHT22;63685;47.374;8.498;2022-11-15T10:17:47;20.40;68.10
75099;DHT22;63685;47.374;8.498;2022-11-15T10:20:21;20.40;68.10
75099;DHT22;63685;47.374;8.498;2022-11-15T10:22:52;20.40;68.10
75099;DHT22;63685;47.374;8.498;2022-11-15T10:25:20;20.40;68.10
75099;DHT22;63685;47.374;8.498;2022-11-15T10:30:42;20.40;68.10
75099;DHT22;63685;47.374;8.498;2022-11-15T10:33:23;20.40;68.00
75099;DHT22;63685;47.374;8.498;2022-11-15T10:43:45;20.40;68.10
75099;DHT22;63685;47.374;8.498;2022-11-15T10:46:21;20.40;68.20
75099;DHT22;63685;47.374;8.498;2022-11-15T10:48:47;20.40;68.20
75099;DHT22;63685;47.374;8.498;2022-11-15T10:51:26;20.40;68.20
75099;DHT22;63685;47.374;8.498;2022-11-15T10:53:54;20.40;68.20
75099;DHT22;63685;47.374;8.498;2022-11-15T10:56:25;20.40;68.30
75099;DHT22;63685;47.374;8.498;2022-11-15T10:58:54;20.40;68.30
75099;DHT22;63685;47.374;8.498;2022-11-15T11:01:25;20.40;68.30
75099;DHT22;63685;47.374;8.498;2022-11-15T11:04:01;20.40;68.30
75099;DHT22;63685;47.374;8.498;2022-11-15T11:06:28;20.40;68.40
75099;DHT22;63685;47.374;8.498;2022-11-15T11:09:05;20.40;68.40
75099;DHT22;63685;47.374;8.498;2022-11-15T11:11:51;20.40;68.40
75099;DHT22;63685;47.374;8.498;2022-11-15T11:14:29;20.30;68.30
75099;DHT22;63685;47.374;8.498;2022-11-15T11:19:44;20.40;68.40
75099;DHT22;63685;47.374;8.498;2022-11-15T11:22:39;20.30;68.30
75099;DHT22;63685;47.374;8.498;2022-11-15T11:33:16;20.40;68.30
75099;DHT22;63685;47.374;8.498;2022-11-15T11:35:59;20.40;68.30
75099;DHT22;63685;47.374;8.498;2022-11-15T11:46:45;20.40;68.40
75099;DHT22;63685;47.374;8.498;2022-11-15T11:49:36;20.40;68.40
75099;DHT22;63685;47.374;8.498;2022-11-15T11:52:17;20.40;68.40
75099;DHT22;63685;47.374;8.498;2022-11-15T11:57:53;20.40;68.40
75099;DHT22;63685;47.374;8.498;2022-11-15T12:00:23;20.40;68.40
75099;DHT22;63685;47.374;8.498;2022-11-15T12:05:41;20.40;68.50
75099;DHT22;63685;47.374;8.498;2022-11-15T12:11:09;20.40;68.50
75099;DHT22;63685;47.374;8.498;2022-11-15T12:13:36;20.40;68.50
75099;DHT22;63685;47.374;8.498;2022-11-15T12:16:09;20.40;68.50
75099;DHT22;63685;47.374;8.498;2022-11-15T12:18:37;20.40;68.50
75099;DHT22;63685;47.374;8.498;2022-11-15T12:21:13;20.40;68.50
75099;DHT22;63685;47.374;8.498;2022-11-15T12:23:48;20.40;68.50
75099;DHT22;63685;47.374;8.498;2022-11-15T12:26:20;20.40;68.50
75099;DHT22;63685;47.374;8.498;2022-11-15T12:28:56;20.40;68.50
75099;DHT22;63685;47.374;8.498;2022-11-15T12:31:38;20.40;69.10
75099;DHT22;63685;47.374;8.498;2022-11-15T12:34:15;20.40;68.50
75099;DHT22;63685;47.374;8.498;2022-11-15T12:36:43;20.40;68.50
75099;DHT22;63685;47.374;8.498;2022-11-15T12:39:13;20.40;68.50
75099;DHT22;63685;47.374;8.498;2022-11-15T12:41:41;20.40;68.60
75099;DHT22;63685;47.374;8.498;2022-11-15T12:44:13;20.40;68.60
75099;DHT22;63685;47.374;8.498;2022-11-15T12:59:51;20.30;68.50
75099;DHT22;63685;47.374;8.498;2022-11-15T13:17:39;20.30;68.60
75099;DHT22;63685;47.374;8.498;2022-11-15T13:22:39;20.30;68.60
75099;DHT22;63685;47.374;8.498;2022-11-15T13:27:52;20.30;68.60
75099;DHT22;63685;47.374;8.498;2022-11-15T13:30:23;20.30;68.60
75099;DHT22;63685;47.374;8.498;2022-11-15T13:32:50;20.30;68.60
75099;DHT22;63685;47.374;8.498;2022-11-15T13:35:25;20.30;68.60
75099;DHT22;63685;47.374;8.498;2022-11-15T13:37:51;20.30;68.60
75099;DHT22;63685;47.374;8.498;2022-11-15T13:40:29;20.30;68.60
75099;DHT22;63685;47.374;8.498;2022-11-15T13:42:59;20.30;68.60
75099;DHT22;63685;47.374;8.498;2022-11-15T13:45:25;20.30;68.60
75099;DHT22;63685;47.374;8.498;2022-11-15T13:47:56;20.30;68.60
75099;DHT22;63685;47.374;8.498;2022-11-15T13:50:26;20.30;68.60
75099;DHT22;63685;47.374;8.498;2022-11-15T13:52:53;20.30;68.60
75099;DHT22;63685;47.374;8.498;2022-11-15T13:55:23;20.30;68.60
75099;DHT22;63685;47.374;8.498;2022-11-15T13:57:53;20.30;68.60
75099;DHT22;63685;47.374;8.498;2022-11-15T14:03:18;20.30;68.60
75099;DHT22;63685;47.374;8.498;2022-11-15T14:06:01;20.30;68.60
75099;DHT22;63685;47.374;8.498;2022-11-15T14:08:27;20.30;68.70
75099;DHT22;63685;47.374;8.498;2022-11-15T14:11:13;20.30;68.70
75099;DHT22;63685;47.374;8.498;2022-11-15T14:13:40;20.30;68.60
75099;DHT22;63685;47.374;8.498;2022-11-15T14:16:16;20.30;68.70
75099;DHT22;63685;47.374;8.498;2022-11-15T14:18:49;20.30;68.70
75099;DHT22;63685;47.374;8.498;2022-11-15T14:21:16;20.30;68.60
75099;DHT22;63685;47.374;8.498;2022-11-15T14:23:42;20.30;68.70
75099;DHT22;63685;47.374;8.498;2022-11-15T14:28:52;20.20;68.70
75099;DHT22;63685;47.374;8.498;2022-11-15T14:31:19;20.20;68.70
75099;DHT22;63685;47.374;8.498;2022-11-15T14:33:46;20.20;68.70
75099;DHT22;63685;47.374;8.498;2022-11-15T14:36:16;20.30;68.70
75099;DHT22;63685;47.374;8.498;2022-11-15T14:38:42;20.30;68.80
75099;DHT22;63685;47.374;8.498;2022-11-15T14:41:19;20.30;68.80
75099;DHT22;63685;47.374;8.498;2022-11-15T14:43:45;20.30;68.80
75099;DHT22;63685;47.374;8.498;2022-11-15T14:46:11;20.20;68.70
75099;DHT22;63685;47.374;8.498;2022-11-15T14:48:36;20.20;68.70
75099;DHT22;63685;47.374;8.498;2022-11-15T14:51:02;20.20;68.80
75099;DHT22;63685;47.374;8.498;2022-11-15T14:53:28;20.30;68.80
75099;DHT22;63685;47.374;8.498;2022-11-15T14:55:53;20.20;68.70
75099;DHT22;63685;47.374;8.498;2022-11-15T14:58:19;20.20;68.70
75099;DHT22;63685;47.374;8.498;2022-11-15T15:00:44;20.20;68.70
75099;DHT22;63685;47.374;8.498;2022-11-15T15:03:10;20.20;68.70
75099;DHT22;63685;47.374;8.498;2022-11-15T15:05:41;20.20;68.70
75099;DHT22;63685;47.374;8.498;2022-11-15T15:08:07;20.20;68.70
75099;DHT22;63685;47.374;8.498;2022-11-15T15:10:42;20.20;68.80
75099;DHT22;63685;47.374;8.498;2022-11-15T15:13:28;20.20;68.80
75099;DHT22;63685;47.374;8.498;2022-11-15T15:15:55;20.20;68.70
75099;DHT22;63685;47.374;8.498;2022-11-15T15:18:21;20.20;68.90
75099;DHT22;63685;47.374;8.498;2022-11-15T15:20:54;20.20;68.70
75099;DHT22;63685;47.374;8.498;2022-11-15T15:23:20;20.20;66.80
75099;DHT22;63685;47.374;8.498;2022-11-15T15:25:47;20.20;67.30
75099;DHT22;63685;47.374;8.498;2022-11-15T15:28:14;20.10;67.40
75099;DHT22;63685;47.374;8.498;2022-11-15T15:30:40;20.20;67.50
75099;DHT22;63685;47.374;8.498;2022-11-15T15:33:06;20.10;67.10
75099;DHT22;63685;47.374;8.498;2022-11-15T15:35:33;20.10;67.10
75099;DHT22;63685;47.374;8.498;2022-11-15T15:37:59;20.20;67.20
75099;DHT22;63685;47.374;8.498;2022-11-15T15:40:28;20.10;67.20
75099;DHT22;63685;47.374;8.498;2022-11-15T15:42:54;20.10;67.80
75099;DHT22;63685;47.374;8.498;2022-11-15T15:45:19;20.20;67.30
75099;DHT22;63685;47.374;8.498;2022-11-15T15:47:45;20.20;67.30
75099;DHT22;63685;47.374;8.498;2022-11-15T15:50:14;20.20;67.40
75099;DHT22;63685;47.374;8.498;2022-11-15T15:52:42;20.10;67.40
75099;DHT22;63685;47.374;8.498;2022-11-15T15:55:08;20.20;68.00
75099;DHT22;63685;47.374;8.498;2022-11-15T15:57:34;20.10;67.40
75099;DHT22;63685;47.374;8.498;2022-11-15T15:59:59;20.20;67.80
75099;DHT22;63685;47.374;8.498;2022-11-15T16:02:25;20.20;67.60
75099;DHT22;63685;47.374;8.498;2022-11-15T16:04:50;20.20;68.30
75099;DHT22;63685;47.374;8.498;2022-11-15T16:07:21;20.20;69.30
75099;DHT22;63685;47.374;8.498;2022-11-15T16:09:47;20.20;69.60
75099;DHT22;63685;47.374;8.498;2022-11-15T16:12:25;20.20;70.20
75099;DHT22;63685;47.374;8.498;2022-11-15T16:14:51;20.20;70.10
75099;DHT22;63685;47.374;8.498;2022-11-15T16:17:25;20.20;69.90
75099;DHT22;63685;47.374;8.498;2022-11-15T16:19:51;20.30;69.40
75099;DHT22;63685;47.374;8.498;2022-11-15T16:22:17;20.30;69.20
75099;DHT22;63685;47.374;8.498;2022-11-15T16:24:43;20.30;69.00
75099;DHT22;63685;47.374;8.498;2022-11-15T16:27:17;20.30;69.00
75099;DHT22;63685;47.374;8.498;2022-11-15T16:29:43;20.30;69.10
75099;DHT22;63685;47.374;8.498;2022-11-15T16:32:09;20.30;69.20
75099;DHT22;63685;47.374;8.498;2022-11-15T16:34:35;20.30;69.20
75099;DHT22;63685;47.374;8.498;2022-11-15T16:37:01;20.20;69.20
75099;DHT22;63685;47.374;8.498;2022-11-15T16:39:26;20.20;69.30
75099;DHT22;63685;47.374;8.498;2022-11-15T16:41:56;20.20;69.70
75099;DHT22;63685;47.374;8.498;2022-11-15T16:44:21;20.20;69.40
75099;DHT22;63685;47.374;8.498;2022-11-15T16:46:47;20.30;69.40
75099;DHT22;63685;47.374;8.498;2022-11-15T16:49:17;20.30;69.50
75099;DHT22;63685;47.374;8.498;2022-11-15T16:51:45;20.30;69.50
75099;DHT22;63685;47.374;8.498;2022-11-15T16:54:11;20.30;69.60
75099;DHT22;63685;47.374;8.498;2022-11-15T16:56:38;20.30;69.70
75099;DHT22;63685;47.374;8.498;2022-11-15T16:59:04;20.30;69.70
75099;DHT22;63685;47.374;8.498;2022-11-15T17:01:32;20.30;69.80
75099;DHT22;63685;47.374;8.498;2022-11-15T17:04:00;20.30;70.10
75099;DHT22;63685;47.374;8.498;2022-11-15T17:06:37;20.30;69.80
75099;DHT22;63685;47.374;8.498;2022-11-15T17:09:04;20.30;69.70
75099;DHT22;63685;47.374;8.498;2022-11-15T17:11:29;20.30;69.60
75099;DHT22;63685;47.374;8.498;2022-11-15T17:13:58;20.30;70.20
75099;DHT22;63685;47.374;8.498;2022-11-15T17:16:25;20.30;69.60
75099;DHT22;63685;47.374;8.498;2022-11-15T17:18:51;20.20;69.60
75099;DHT22;63685;47.374;8.498;2022-11-15T17:21:19;20.20;70.00
75099;DHT22;63685;47.374;8.498;2022-11-15T17:23:45;20.20;69.70
75099;DHT22;63685;47.374;8.498;2022-11-15T17:26:12;20.20;70.30
75099;DHT22;63685;47.374;8.498;2022-11-15T17:28:38;20.20;70.10
75099;DHT22;63685;47.374;8.498;2022-11-15T17:31:09;20.20;69.90
75099;DHT22;63685;47.374;8.498;2022-11-15T17:33:35;20.20;69.90
75099;DHT22;63685;47.374;8.498;2022-11-15T17:36:03;20.20;69.80
75099;DHT22;63685;47.374;8.498;2022-11-15T17:38:29;20.20;69.60
75099;DHT22;63685;47.374;8.498;2022-11-15T17:41:11;20.20;69.60
75099;DHT22;63685;47.374;8.498;2022-11-15T17:43:37;20.20;70.00
75099;DHT22;63685;47.374;8.498;2022-11-15T17:46:08;20.20;70.50